createdAt,value
2023-04-08T00:01:17.163Z,16.40
2023-04-08T00:03:46.394Z,17.23
2023-04-08T00:06:17.154Z,14.32
2023-04-08T00:08:46.368Z,15.57
2023-04-08T00:11:16.008Z,17.15
2023-04-08T00:13:45.189Z,18.10
2023-04-08T00:16:14.350Z,15.20
2023-04-08T00:18:43.800Z,15.55
2023-04-08T00:21:13.816Z,17.88
2023-04-08T00:23:44.411Z,13.32
2023-04-08T00:26:13.606Z,17.30
2023-04-08T00:28:43.911Z,18.13
2023-04-08T00:31:13.067Z,14.43
2023-04-08T00:33:42.245Z,23.70
2023-04-08T00:36:12.950Z,17.52
2023-04-08T00:38:43.539Z,14.32
2023-04-08T00:41:12.875Z,17.58
2023-04-08T00:43:42.078Z,16.83
2023-04-08T00:46:11.418Z,16.08
2023-04-08T00:48:41.029Z,20.67
2023-04-08T00:51:11.289Z,18.10
2023-04-08T00:53:40.796Z,18.83
2023-04-08T00:56:11.858Z,12.68
2023-04-08T00:58:41.608Z,18.40
2023-04-08T01:01:16.291Z,11.88
2023-04-08T01:03:57.938Z,17.88
2023-04-08T01:06:37.446Z,20.88
2023-04-08T01:09:07.415Z,16.42
2023-04-08T01:11:43.023Z,16.63
2023-04-08T01:14:16.887Z,17.45
2023-04-08T01:16:48.031Z,17.95
2023-04-08T01:19:25.360Z,17.52
2023-04-08T01:21:56.341Z,19.13
2023-04-08T01:24:30.783Z,16.10
2023-04-08T01:27:02.949Z,17.42
2023-04-08T01:29:33.034Z,16.17
2023-04-08T01:32:03.279Z,19.98
2023-04-08T01:34:33.914Z,16.40
2023-04-08T01:37:04.314Z,13.95
2023-04-08T01:39:35.297Z,12.23
2023-04-08T01:42:06.929Z,14.40
2023-04-08T01:44:37.286Z,18.15
2023-04-08T01:47:06.725Z,16.93
2023-04-08T01:49:36.837Z,15.35
2023-04-08T01:52:07.968Z,13.75
2023-04-08T01:54:37.420Z,15.13
2023-04-08T01:57:09.972Z,14.60
2023-04-08T01:59:41.700Z,18.55
2023-04-08T02:02:12.218Z,20.80
2023-04-08T02:04:41.604Z,19.35
2023-04-08T02:07:10.796Z,18.13
2023-04-08T02:09:39.943Z,18.33
2023-04-08T02:12:10.656Z,18.02
2023-04-08T02:14:39.978Z,20.38
2023-04-08T02:17:15.642Z,20.92
2023-04-08T02:19:50.129Z,19.20
2023-04-08T02:22:25.623Z,18.98
2023-04-08T02:24:55.128Z,18.90
2023-04-08T02:27:28.172Z,17.45
2023-04-08T02:29:59.048Z,15.00
2023-04-08T02:32:28.943Z,17.27
2023-04-08T02:34:59.131Z,16.40
2023-04-08T02:37:29.936Z,15.45
2023-04-08T02:39:59.429Z,14.65
2023-04-08T02:42:29.927Z,16.75
2023-04-08T02:44:59.264Z,14.30
2023-04-08T02:47:28.307Z,16.75
2023-04-08T02:49:57.369Z,12.55
2023-04-08T02:52:26.371Z,15.77
2023-04-08T02:54:55.529Z,15.25
2023-04-08T02:57:24.725Z,13.95
2023-04-08T02:59:55.164Z,11.90
2023-04-08T03:02:24.425Z,17.00
2023-04-08T03:04:53.576Z,15.45
2023-04-08T03:07:22.741Z,18.05
2023-04-08T03:09:53.038Z,15.65
2023-04-08T03:12:22.235Z,17.27
2023-04-08T03:14:51.776Z,15.20
2023-04-08T03:17:22.649Z,15.90
2023-04-08T03:19:51.728Z,16.25
2023-04-08T03:22:20.956Z,14.43
2023-04-08T03:24:50.156Z,11.88
2023-04-08T03:27:19.331Z,16.00
2023-04-08T03:29:48.579Z,14.45
2023-04-08T03:32:17.736Z,15.90
2023-04-08T03:34:51.261Z,15.13
2023-04-08T03:37:20.483Z,12.55
2023-04-08T03:39:49.570Z,15.65
2023-04-08T03:42:18.655Z,12.52
2023-04-08T03:44:47.960Z,12.05
2023-04-08T03:47:17.202Z,14.45
2023-04-08T03:49:47.793Z,12.55
2023-04-08T03:52:16.938Z,12.13
2023-04-08T03:54:45.974Z,16.30
2023-04-08T03:57:15.064Z,12.43
2023-04-08T03:59:44.320Z,14.15
2023-04-08T04:02:13.492Z,13.82
2023-04-08T04:04:42.757Z,11.55
2023-04-08T04:07:13.420Z,14.45
2023-04-08T04:09:42.516Z,16.60
2023-04-08T04:12:11.650Z,12.45
2023-04-08T04:14:40.856Z,12.45
2023-04-08T04:17:10.000Z,12.60
2023-04-08T04:19:39.100Z,10.30
2023-04-08T04:22:08.326Z,13.88
2023-04-08T04:24:38.809Z,12.13
2023-04-08T04:27:07.975Z,10.50
2023-04-08T04:29:37.113Z,11.90
2023-04-08T04:32:06.762Z,9.23
2023-04-08T04:34:35.891Z,10.15
2023-04-08T04:37:05.017Z,11.13
2023-04-08T04:39:34.168Z,11.50
2023-04-08T04:42:04.818Z,10.27
2023-04-08T04:44:33.949Z,9.15
2023-04-08T04:47:03.053Z,8.85
2023-04-08T04:49:32.220Z,12.82
2023-04-08T04:52:01.594Z,9.55
2023-04-08T04:54:30.779Z,10.77
2023-04-08T04:57:00.001Z,13.60
2023-04-08T04:59:30.765Z,10.45
2023-04-08T05:02:00.100Z,11.48
2023-04-08T05:04:29.623Z,11.82
2023-04-08T05:07:01.540Z,13.40
2023-04-08T05:09:31.011Z,14.15
2023-04-08T05:12:00.255Z,11.60
2023-04-08T05:14:32.192Z,10.57
2023-04-08T05:17:01.248Z,11.77
2023-04-08T05:19:30.383Z,9.98
2023-04-08T05:21:59.548Z,12.10
2023-04-08T05:24:28.838Z,10.60
2023-04-08T05:26:58.045Z,12.70
2023-04-08T05:29:27.798Z,9.95
2023-04-08T05:31:58.340Z,14.80
2023-04-08T05:34:27.439Z,9.32
2023-04-08T05:36:58.255Z,10.50
2023-04-08T05:39:33.728Z,11.15
2023-04-08T05:42:03.284Z,11.18
2023-04-08T05:44:32.377Z,10.85
2023-04-08T05:47:03.057Z,14.70
2023-04-08T05:49:32.252Z,13.15
2023-04-08T05:52:01.454Z,12.00
2023-04-08T05:54:32.523Z,11.10
2023-04-08T05:57:01.872Z,15.82
2023-04-08T05:59:31.174Z,12.85
2023-04-08T06:02:00.437Z,12.27
2023-04-08T06:04:31.397Z,12.25
2023-04-08T06:07:03.051Z,13.32
2023-04-08T06:09:32.309Z,13.73
2023-04-08T06:12:01.399Z,14.45
2023-04-08T06:14:30.710Z,9.68
2023-04-08T06:16:59.914Z,10.57
2023-04-08T06:19:30.698Z,12.55
2023-04-08T06:21:59.939Z,11.32
2023-04-08T06:24:29.549Z,12.40
2023-04-08T06:26:58.839Z,11.90
2023-04-08T06:29:29.983Z,13.60
2023-04-08T06:31:59.131Z,13.60
2023-04-08T06:34:28.361Z,14.45
2023-04-08T06:36:58.868Z,13.75
2023-04-08T06:39:28.188Z,13.15
2023-04-08T06:41:58.249Z,10.13
2023-04-08T06:44:50.574Z,13.23
2023-04-08T06:47:19.707Z,12.23
2023-04-08T06:49:48.925Z,15.02
2023-04-08T06:52:19.299Z,15.63
2023-04-08T06:54:48.259Z,13.70
2023-04-08T06:57:17.255Z,13.07
2023-04-08T06:59:46.829Z,12.52
2023-04-08T07:02:16.719Z,12.60
2023-04-08T07:04:47.010Z,15.95
2023-04-08T07:07:18.909Z,13.18
2023-04-08T07:09:50.089Z,10.05
2023-04-08T07:12:19.176Z,10.68
2023-04-08T07:14:48.168Z,16.02
2023-04-08T07:17:17.312Z,15.70
2023-04-08T07:19:46.751Z,11.43
2023-04-08T07:22:16.379Z,10.32
2023-04-08T07:24:49.787Z,11.55
2023-04-08T07:27:20.447Z,9.68
2023-04-08T07:29:54.535Z,9.07
2023-04-08T07:32:23.785Z,12.18
2023-04-08T07:34:52.854Z,12.35
2023-04-08T07:37:21.988Z,13.63
2023-04-08T07:39:51.406Z,9.88
2023-04-08T07:42:22.450Z,19.33
2023-04-08T07:44:52.422Z,9.20
2023-04-08T07:47:21.880Z,8.30
2023-04-08T07:49:51.734Z,7.93
2023-04-08T07:52:21.021Z,10.60
2023-04-08T07:54:50.349Z,10.65
2023-04-08T07:57:21.493Z,10.55
2023-04-08T07:59:51.293Z,9.80
2023-04-08T08:02:20.600Z,11.95
2023-04-08T08:04:49.913Z,10.60
2023-04-08T08:07:18.922Z,11.45
2023-04-08T08:09:47.953Z,11.80
2023-04-08T08:12:17.022Z,10.80
2023-04-08T08:14:47.561Z,9.95
2023-04-08T08:17:16.783Z,8.70
2023-04-08T08:19:45.835Z,9.20
2023-04-08T08:22:14.825Z,7.10
2023-04-08T08:24:44.023Z,9.40
2023-04-08T08:27:13.077Z,12.20
2023-04-08T08:29:42.144Z,8.18
2023-04-08T08:32:12.541Z,11.85
2023-04-08T08:34:41.614Z,10.43
2023-04-08T08:37:10.871Z,8.40
2023-04-08T08:39:40.130Z,9.30
2023-04-08T08:42:19.413Z,9.50
2023-04-08T08:44:48.609Z,10.00
2023-04-08T08:47:19.381Z,17.13
2023-04-08T08:49:49.566Z,6.38
2023-04-08T08:52:18.914Z,12.43
2023-04-08T08:54:48.266Z,9.88
2023-04-08T08:57:20.770Z,11.30
2023-04-08T08:59:49.951Z,5.80
2023-04-08T09:02:29.245Z,10.90
2023-04-08T09:05:00.160Z,7.10
2023-04-08T09:07:30.958Z,9.07
2023-04-08T09:10:00.964Z,9.82
2023-04-08T09:12:31.453Z,11.60
2023-04-08T09:15:07.982Z,8.87
2023-04-08T09:17:39.701Z,12.98
2023-04-08T09:20:11.930Z,11.65
2023-04-08T09:23:01.065Z,11.63
2023-04-08T09:25:32.349Z,17.75
2023-04-08T09:30:34.180Z,10.35
2023-04-08T09:35:36.597Z,7.72
2023-04-08T09:38:05.761Z,10.00
2023-04-08T09:40:36.912Z,16.27
2023-04-08T09:43:09.609Z,9.52
2023-04-08T09:45:42.842Z,13.00
2023-04-08T09:48:18.692Z,8.50
2023-04-08T09:50:51.281Z,12.35
2023-04-08T09:53:26.501Z,11.70
2023-04-08T09:55:58.892Z,7.50
2023-04-08T09:58:31.541Z,14.88
2023-04-08T10:01:00.964Z,12.82
2023-04-08T10:03:36.229Z,11.32
2023-04-08T10:06:06.624Z,7.63
2023-04-08T10:08:36.597Z,14.67
2023-04-08T10:11:06.500Z,11.52
2023-04-08T10:13:36.020Z,10.68
2023-04-08T10:16:22.179Z,12.52
2023-04-08T10:18:56.193Z,10.02
2023-04-08T10:21:38.807Z,7.22
2023-04-08T10:24:09.401Z,7.90
2023-04-08T10:26:43.711Z,10.48
2023-04-08T10:29:46.501Z,8.05
2023-04-08T10:32:31.275Z,10.30
2023-04-08T10:35:01.741Z,8.63
2023-04-08T10:37:30.812Z,11.33
2023-04-08T10:40:00.075Z,14.20
2023-04-08T10:42:29.860Z,10.88
2023-04-08T10:45:03.686Z,7.30
2023-04-08T10:47:33.039Z,8.98
2023-04-08T10:50:13.206Z,14.05
2023-04-08T10:52:48.475Z,10.02
2023-04-08T10:55:18.275Z,12.32
2023-04-08T10:57:47.876Z,10.43
2023-04-08T11:00:20.306Z,11.05
2023-04-08T11:02:49.421Z,11.80
2023-04-08T11:05:23.535Z,9.90
2023-04-08T11:07:53.648Z,15.30
2023-04-08T11:10:22.905Z,13.32
2023-04-08T11:12:52.053Z,14.23
2023-04-08T11:15:21.325Z,10.32
2023-04-08T11:17:51.074Z,9.75
2023-04-08T11:20:22.095Z,16.42
2023-04-08T11:22:53.116Z,15.50
2023-04-08T11:25:22.838Z,13.27
2023-04-08T11:27:52.185Z,9.80
2023-04-08T11:30:21.894Z,17.73
2023-04-08T11:32:52.591Z,12.10
2023-04-08T11:35:23.256Z,10.63
2023-04-08T11:37:54.488Z,10.63
2023-04-08T11:40:24.559Z,10.88
2023-04-08T11:42:54.432Z,14.68
2023-04-08T11:45:23.931Z,16.52
2023-04-08T11:47:54.163Z,12.73
2023-04-08T11:50:30.061Z,14.57
2023-04-08T11:52:59.737Z,11.85
2023-04-08T11:55:30.443Z,12.93
2023-04-08T11:58:04.478Z,13.75
2023-04-08T12:00:33.564Z,11.32
2023-04-08T12:03:02.652Z,15.90
2023-04-08T12:05:33.166Z,14.00
2023-04-08T12:08:02.450Z,14.47
2023-04-08T12:10:31.789Z,9.48
2023-04-08T12:13:00.888Z,14.48
2023-04-08T12:15:30.126Z,13.57
2023-04-08T12:17:59.276Z,14.55
2023-04-08T12:20:28.321Z,13.60
2023-04-08T12:22:58.730Z,11.82
2023-04-08T12:25:27.863Z,11.77
2023-04-08T12:27:56.887Z,9.63
2023-04-08T12:30:25.942Z,16.55
2023-04-08T12:32:55.427Z,14.98
2023-04-08T12:35:24.641Z,12.75
2023-04-08T12:37:53.831Z,12.57
2023-04-08T12:40:24.247Z,17.05
2023-04-08T12:42:53.302Z,15.23
2023-04-08T12:45:22.470Z,13.35
2023-04-08T12:47:51.706Z,14.45
2023-04-08T12:50:20.947Z,18.88
2023-04-08T12:52:50.029Z,14.63
2023-04-08T12:55:19.315Z,17.15
2023-04-08T12:57:49.868Z,17.13
2023-04-08T13:00:19.540Z,16.25
2023-04-08T13:02:48.743Z,14.82
2023-04-08T13:05:19.707Z,16.40
2023-04-08T13:07:52.807Z,16.08
2023-04-08T13:10:21.862Z,17.13
2023-04-08T13:12:52.284Z,16.27
2023-04-08T13:15:21.390Z,20.33
2023-04-08T13:17:51.053Z,19.95
2023-04-08T13:20:20.033Z,20.13
2023-04-08T13:22:49.022Z,18.23
2023-04-08T13:25:18.038Z,14.82
2023-04-08T13:27:47.060Z,18.95
2023-04-08T13:30:17.718Z,18.35
2023-04-08T13:32:46.804Z,21.05
2023-04-08T13:35:15.937Z,21.55
2023-04-08T13:37:45.036Z,16.85
2023-04-08T13:40:14.570Z,19.83
2023-04-08T13:42:43.621Z,18.45
2023-04-08T13:45:12.912Z,17.13
2023-04-08T13:47:43.372Z,20.42
2023-04-08T13:50:12.647Z,16.57
2023-04-08T13:52:41.676Z,22.02
2023-04-08T13:55:10.834Z,20.42
2023-04-08T13:57:39.892Z,16.67
2023-04-08T14:00:10.349Z,16.08
2023-04-08T14:02:39.574Z,23.85
2023-04-08T14:05:10.848Z,12.85
2023-04-08T14:07:39.898Z,15.55
2023-04-08T14:10:10.253Z,14.50
2023-04-08T14:12:39.321Z,21.90
2023-04-08T14:15:09.709Z,15.80
2023-04-08T14:17:38.829Z,15.50
2023-04-08T14:20:10.418Z,20.30
2023-04-08T14:22:39.412Z,17.67
2023-04-08T14:25:09.183Z,16.52
2023-04-08T14:27:47.528Z,17.60
2023-04-08T14:30:24.132Z,20.80
2023-04-08T14:32:53.169Z,16.98
2023-04-08T14:35:24.818Z,14.75
2023-04-08T14:37:53.843Z,13.00
2023-04-08T14:40:23.031Z,19.45
2023-04-08T14:42:52.173Z,13.93
2023-04-08T14:45:21.937Z,16.42
2023-04-08T14:47:51.260Z,18.00
2023-04-08T14:50:20.608Z,17.98
2023-04-08T14:52:51.368Z,14.38
2023-04-08T14:55:22.576Z,16.25
2023-04-08T15:00:20.636Z,13.48
2023-04-08T15:02:49.908Z,13.52
2023-04-08T15:05:19.650Z,18.83
2023-04-08T15:07:51.236Z,16.05
2023-04-08T15:10:20.522Z,17.48
2023-04-08T15:12:49.575Z,18.00
2023-04-08T15:15:18.798Z,19.15
2023-04-08T15:17:50.216Z,20.67
2023-04-08T15:20:21.093Z,24.90
2023-04-08T15:22:52.204Z,21.40
2023-04-08T15:25:21.406Z,18.05
2023-04-08T15:27:50.500Z,18.95
2023-04-08T15:30:24.511Z,18.00
2023-04-08T15:32:55.556Z,16.92
2023-04-08T15:35:27.274Z,18.05
2023-04-08T15:38:00.818Z,16.42
2023-04-08T15:40:32.287Z,15.18
2023-04-08T15:45:30.395Z,18.17
2023-04-08T15:47:59.682Z,12.88
2023-04-08T15:50:30.802Z,15.38
2023-04-08T15:53:01.228Z,13.45
2023-04-08T15:55:30.706Z,14.90
2023-04-08T15:57:59.860Z,18.50
2023-04-08T16:00:29.047Z,22.73
2023-04-08T16:02:58.280Z,35.47
2023-04-08T16:05:30.056Z,17.25
2023-04-08T16:08:00.774Z,35.00
2023-04-08T16:10:29.988Z,15.80
2023-04-08T16:12:59.170Z,16.20
2023-04-08T16:15:28.395Z,17.38
2023-04-08T16:17:57.750Z,21.25
2023-04-08T16:20:28.844Z,12.90
2023-04-08T16:22:57.997Z,16.52
2023-04-08T16:25:28.876Z,19.27
2023-04-08T16:27:57.940Z,15.18
2023-04-08T16:30:27.474Z,22.70
2023-04-08T16:32:56.861Z,25.67
2023-04-08T16:35:26.052Z,17.23
2023-04-08T16:37:55.564Z,18.38
2023-04-08T16:40:24.649Z,16.10
2023-04-08T16:42:55.152Z,14.10
2023-04-08T16:45:24.187Z,12.82
2023-04-08T16:47:53.391Z,18.40
2023-04-08T16:50:22.438Z,22.35
2023-04-08T16:52:51.720Z,19.45
2023-04-08T16:55:20.839Z,17.75
2023-04-08T16:57:49.908Z,18.55
2023-04-08T17:00:21.367Z,17.38
2023-04-08T17:02:50.976Z,13.95
2023-04-08T17:05:20.381Z,26.90
2023-04-08T17:07:49.518Z,19.63
2023-04-08T17:10:18.959Z,19.23
2023-04-08T17:12:47.991Z,25.88
2023-04-08T17:15:17.018Z,22.15
2023-04-08T17:17:48.038Z,26.20
2023-04-08T17:20:17.226Z,24.98
2023-04-08T17:22:46.380Z,23.83
2023-04-08T17:25:15.640Z,23.60
2023-04-08T17:27:44.669Z,22.80
2023-04-08T17:30:14.234Z,23.98
2023-04-08T17:32:43.335Z,23.52
2023-04-08T17:35:14.274Z,18.13
2023-04-08T17:37:43.277Z,21.85
2023-04-08T17:40:12.702Z,20.00
2023-04-08T17:42:42.072Z,20.95
2023-04-08T17:45:11.816Z,18.58
2023-04-08T17:47:42.898Z,23.00
2023-04-08T17:50:13.672Z,24.63
2023-04-08T17:52:44.475Z,26.20
2023-04-08T17:55:14.485Z,17.83
2023-04-08T17:57:43.885Z,13.63
2023-04-08T18:00:13.534Z,15.38
2023-04-08T18:02:42.815Z,10.65
2023-04-08T18:05:13.716Z,12.15
2023-04-08T18:07:42.782Z,12.60
2023-04-08T18:10:12.093Z,12.95
2023-04-08T18:12:41.155Z,14.27
2023-04-08T18:15:11.041Z,15.00
2023-04-08T18:17:40.124Z,15.00
2023-04-08T18:20:10.200Z,34.60
2023-04-08T18:22:40.704Z,27.15
2023-04-08T18:25:10.919Z,28.00
2023-04-08T18:27:40.683Z,35.78
2023-04-08T18:30:10.677Z,20.63
2023-04-08T18:32:39.768Z,20.40
2023-04-08T18:35:09.381Z,25.65
2023-04-08T18:37:38.870Z,14.68
2023-04-08T18:40:10.967Z,15.43
2023-04-08T18:42:40.015Z,13.98
2023-04-08T18:45:09.665Z,16.73
2023-04-08T18:47:38.746Z,10.10
2023-04-08T18:50:08.266Z,19.27
2023-04-08T18:52:37.571Z,13.57
2023-04-08T18:55:07.159Z,17.48
2023-04-08T18:57:38.709Z,14.38
2023-04-08T19:00:09.475Z,17.65
2023-04-08T19:02:38.881Z,18.83
2023-04-08T19:05:08.837Z,18.10
2023-04-08T19:07:38.186Z,16.13
2023-04-08T19:10:08.588Z,14.00
2023-04-08T19:12:39.173Z,17.02
2023-04-08T19:15:09.152Z,18.10
2023-04-08T19:17:38.383Z,22.98
2023-04-08T19:20:09.079Z,15.13
2023-04-08T19:22:38.788Z,16.83
2023-04-08T19:25:08.748Z,15.80
2023-04-08T19:27:39.416Z,13.68
2023-04-08T19:30:09.870Z,11.93
2023-04-08T19:32:39.331Z,14.70
2023-04-08T19:35:12.365Z,17.20
2023-04-08T19:37:41.638Z,17.15
2023-04-08T19:40:12.183Z,12.38
2023-04-08T19:42:44.687Z,14.30
2023-04-08T19:45:13.877Z,21.25
2023-04-08T19:47:43.899Z,16.13
2023-04-08T19:50:13.797Z,18.02
2023-04-08T19:52:42.919Z,20.00
2023-04-08T19:55:12.329Z,16.00
2023-04-08T19:57:43.500Z,17.90
2023-04-08T20:00:14.316Z,15.63
2023-04-08T20:02:43.614Z,18.67
2023-04-08T20:05:16.242Z,16.58
2023-04-08T20:07:45.303Z,18.23
2023-04-08T20:10:14.702Z,20.58
2023-04-08T20:12:45.210Z,21.05
2023-04-08T20:15:24.163Z,14.65
2023-04-08T20:17:54.962Z,11.70
2023-04-08T20:20:24.183Z,19.48
2023-04-08T20:22:53.719Z,14.88
2023-04-08T20:25:23.016Z,14.68
2023-04-08T20:27:53.437Z,14.93
2023-04-08T20:30:22.813Z,17.47
2023-04-08T20:32:51.888Z,14.15
2023-04-08T20:35:22.168Z,13.07
2023-04-08T20:37:51.353Z,10.82
2023-04-08T20:40:20.705Z,12.23
2023-04-08T20:42:49.958Z,15.05
2023-04-08T20:45:20.763Z,15.10
2023-04-08T20:47:54.172Z,16.75
2023-04-08T20:50:28.657Z,15.82
2023-04-08T20:52:58.487Z,12.13
2023-04-08T20:55:27.673Z,13.95
2023-04-08T20:57:56.711Z,16.55
2023-04-08T21:00:27.232Z,12.85
2023-04-08T21:02:56.445Z,14.65
2023-04-08T21:05:25.630Z,13.45
2023-04-08T21:07:54.724Z,12.65
2023-04-08T21:10:24.141Z,10.80
2023-04-08T21:12:53.358Z,15.93
2023-04-08T21:15:22.579Z,12.65
2023-04-08T21:17:53.044Z,11.77
2023-04-08T21:20:22.527Z,14.77
2023-04-08T21:22:51.817Z,12.63
2023-04-08T21:25:20.908Z,16.40
2023-04-08T21:27:50.014Z,15.57
2023-04-08T21:30:19.348Z,10.07
2023-04-08T21:32:49.213Z,16.02
2023-04-08T21:35:19.607Z,13.18
2023-04-08T21:37:48.618Z,11.87
2023-04-08T21:40:18.214Z,12.38
2023-04-08T21:42:47.275Z,10.27
2023-04-08T21:45:17.074Z,9.35
2023-04-08T21:47:46.286Z,9.98
2023-04-08T21:50:15.378Z,10.38
2023-04-08T21:52:45.876Z,11.63
2023-04-08T21:55:15.525Z,13.45
2023-04-08T21:57:44.519Z,11.40
2023-04-08T22:00:14.930Z,10.82
2023-04-08T22:02:47.647Z,9.68
2023-04-08T22:05:16.748Z,16.40
2023-04-08T22:07:47.134Z,14.93
2023-04-08T22:10:16.415Z,9.03
2023-04-08T22:12:46.034Z,10.45
2023-04-08T22:15:15.081Z,12.50
2023-04-08T22:17:44.121Z,14.32
2023-04-08T22:20:13.597Z,9.75
2023-04-08T22:22:42.599Z,13.85
2023-04-08T22:25:13.302Z,13.40
2023-04-08T22:27:42.434Z,11.70
2023-04-08T22:30:12.196Z,12.23
2023-04-08T22:32:41.351Z,7.95
2023-04-08T22:35:11.039Z,15.07
2023-04-08T22:37:42.571Z,12.00
2023-04-08T22:40:13.543Z,10.68
2023-04-08T22:42:42.537Z,8.68
2023-04-08T22:45:12.284Z,10.18
2023-04-08T22:47:41.331Z,8.77
2023-04-08T22:50:11.134Z,11.75
2023-04-08T22:52:40.452Z,10.55
2023-04-08T22:55:10.445Z,13.18
2023-04-08T22:57:41.152Z,9.25
2023-04-08T23:00:12.447Z,9.15
2023-04-08T23:05:11.038Z,11.10
2023-04-08T23:07:40.042Z,9.00
2023-04-08T23:10:10.146Z,8.60
2023-04-08T23:12:40.556Z,8.05
2023-04-08T23:15:10.103Z,9.90
2023-04-08T23:17:39.255Z,8.73
2023-04-08T23:20:09.429Z,8.88
2023-04-08T23:22:38.427Z,10.70
2023-04-08T23:25:08.644Z,10.73
2023-04-08T23:27:37.721Z,8.00
2023-04-08T23:30:09.492Z,10.60
2023-04-08T23:32:38.649Z,10.43
2023-04-08T23:35:09.800Z,9.45
2023-04-08T23:37:38.865Z,15.30
2023-04-08T23:40:09.589Z,12.45
2023-04-08T23:42:38.585Z,12.27
2023-04-08T23:45:09.886Z,7.97
2023-04-08T23:47:41.829Z,10.77
2023-04-08T23:50:11.425Z,6.40
2023-04-08T23:52:40.520Z,8.45
2023-04-08T23:55:10.176Z,12.57
2023-04-08T23:57:39.209Z,9.18
